Time;durP1;ratioP1;P1;durP2;ratioP2;P2;SDS_P1;SDS_P2;PMS_P1;PMS_P2;Temp;Humidity;BMP_temperature;BMP_pressure;BME280_temperature;BME280_humidity;BME280_pressure;Samples;Min_cycle;Max_cycle;Signal;HPM_P1;HPM_P2
2022/02/07 00:00:22;;;;;;;0.73;0.22;;;5.00;99.90;;;;;;5031298;28;20029;-75
2022/02/07 00:05:24;;;;;;;0.25;0.10;;;5.10;99.90;;;;;;5012433;28;20030;-75
2022/02/07 00:07:50;;;;;;;0.22;0.10;;;5.00;99.90;;;;;;5012669;28;20033;-74
2022/02/07 00:10:16;;;;;;;1.83;0.20;;;5.60;99.90;;;;;;5026728;28;20439;-75
2022/02/07 00:12:41;;;;;;;1.20;0.28;;;5.40;99.90;;;;;;5032174;28;20026;-75
2022/02/07 00:15:10;;;;;;;0.55;0.05;;;5.50;99.90;;;;;;5031681;28;20029;-76
2022/02/07 00:17:36;;;;;;;0.13;0.10;;;5.00;99.90;;;;;;5034345;28;20548;-75
2022/02/07 00:20:08;;;;;;;1.40;0.00;;;4.90;99.90;;;;;;5031015;28;20041;-75
2022/02/07 00:22:33;;;;;;;1.35;0.10;;;5.00;99.90;;;;;;5030848;28;20038;-75
2022/02/07 00:24:59;;;;;;;0.20;0.00;;;5.00;99.90;;;;;;5030280;28;20038;-76
2022/02/07 00:27:25;;;;;;;0.82;0.20;;;5.00;99.90;;;;;;5031930;28;20042;-76
2022/02/07 00:29:50;;;;;;;0.98;0.10;;;4.90;99.90;;;;;;5030838;28;20455;-75
2022/02/07 00:32:16;;;;;;;0.08;0.05;;;5.90;99.90;;;;;;5031720;28;20033;-76
2022/02/07 00:34:42;;;;;;;0.47;0.10;;;4.90;99.90;;;;;;5031591;28;20068;-76
2022/02/07 00:37:07;;;;;;;1.02;0.20;;;4.90;99.90;;;;;;5030389;28;20489;-75
2022/02/07 00:39:43;;;;;;;0.13;0.00;;;5.80;99.90;;;;;;5029359;28;20383;-76
2022/02/07 00:42:18;;;;;;;0.25;0.13;;;4.90;99.90;;;;;;5030356;28;20030;-76
2022/02/07 00:44:45;;;;;;;0.38;0.10;;;4.80;99.90;;;;;;5030013;28;20030;-75
2022/02/07 00:47:11;;;;;;;0.60;0.10;;;4.80;99.90;;;;;;5014224;28;20038;-75
2022/02/07 00:49:37;;;;;;;0.43;0.30;;;4.70;99.90;;;;;;5030762;28;20569;-76
2022/02/07 00:52:03;;;;;;;1.90;0.10;;;4.70;99.90;;;;;;5032660;28;20038;-76
2022/02/07 00:54:28;;;;;;;0.80;0.20;;;4.80;99.90;;;;;;5017774;28;20482;-76
2022/02/07 00:56:54;;;;;;;5.05;0.28;;;5.60;99.90;;;;;;5035270;28;20026;-76
2022/02/07 00:59:19;;;;;;;1.85;0.30;;;4.80;99.90;;;;;;5034840;28;20044;-76
2022/02/07 01:01:45;;;;;;;1.65;0.17;;;4.80;99.90;;;;;;5036236;28;20037;-77
2022/02/07 01:04:11;;;;;;;2.67;0.45;;;5.50;99.90;;;;;;5037720;28;20116;-75
2022/02/07 01:06:36;;;;;;;1.48;0.32;;;4.80;99.90;;;;;;5035016;28;20028;-74
2022/02/07 01:09:16;;;;;;;2.50;0.28;;;4.80;99.90;;;;;;5033296;28;20033;-75
2022/02/07 01:12:04;;;;;;;1.90;0.50;;;4.90;99.90;;;;;;5033802;28;20033;-75
2022/02/07 01:14:47;;;;;;;2.40;0.20;;;5.10;99.90;;;;;;5035109;28;20021;-78
2022/02/07 01:47:37;;;;;;;0.20;0.10;;;4.80;99.90;;;;;;5014193;28;20569;-76
2022/02/07 01:55:01;;;;;;;1.08;0.10;;;5.60;99.90;;;;;;5034254;28;20029;-76
2022/02/07 01:57:27;;;;;;;3.40;0.40;;;4.70;99.90;;;;;;5033306;28;20033;-76
2022/02/07 01:59:52;;;;;;;0.88;0.20;;;5.20;99.90;;;;;;5032254;28;20276;-76
2022/02/07 02:02:18;;;;;;;2.65;0.10;;;5.00;99.90;;;;;;5033715;28;20033;-76
2022/02/07 02:04:44;;;;;;;0.98;0.30;;;4.80;99.90;;;;;;5034073;28;20041;-76
2022/02/07 02:07:10;;;;;;;4.30;0.17;;;4.80;99.90;;;;;;5040318;28;20049;-76
2022/02/07 02:09:36;;;;;;;0.47;0.17;;;4.80;99.90;;;;;;5037544;28;20029;-74
2022/02/07 02:12:04;;;;;;;0.60;0.20;;;5.00;99.90;;;;;;5034334;28;20037;-78
2022/02/07 02:36:26;;;;;;;2.70;0.30;;;4.70;99.90;;;;;;5034830;28;20036;-77
2022/02/07 02:46:46;;;;;;;1.88;0.50;;;4.70;99.90;;;;;;5033451;28;20451;-77
2022/02/07 02:49:12;;;;;;;5.30;0.77;;;4.70;99.90;;;;;;5033144;28;20034;-77
2022/02/07 02:51:38;;;;;;;4.57;0.88;;;4.60;99.90;;;;;;5033738;28;20371;-77
2022/02/07 02:54:05;;;;;;;5.55;1.70;;;4.70;99.90;;;;;;5034511;28;20367;-77
2022/02/07 02:56:34;;;;;;;2.22;0.90;;;4.90;99.90;;;;;;5033784;28;20038;-76
2022/02/07 02:59:00;;;;;;;5.72;0.60;;;4.70;99.90;;;;;;5032795;28;20378;-75
2022/02/07 03:01:26;;;;;;;2.70;0.43;;;4.70;99.90;;;;;;5032640;28;20029;-75
2022/02/07 03:03:51;;;;;;;1.40;0.30;;;4.70;99.90;;;;;;5033227;28;20040;-74
2022/02/07 03:06:17;;;;;;;9.38;0.95;;;4.80;99.90;;;;;;5033111;28;20026;-75
2022/02/07 03:08:43;;;;;;;4.28;0.50;;;5.40;99.90;;;;;;5031221;28;20490;-75
2022/02/07 03:11:15;;;;;;;2.38;0.35;;;5.40;99.90;;;;;;5032730;28;20506;-75
2022/02/07 03:18:54;;;;;;;0.40;0.20;;;3.80;99.90;;;;;;5032194;28;20028;-74
2022/02/07 03:21:19;;;;;;;2.42;0.40;;;3.40;99.90;;;;;;5032604;28;20410;-74
2022/02/07 03:23:45;;;;;;;2.05;0.30;;;3.10;99.90;;;;;;5032589;28;20120;-75
2022/02/07 03:26:13;;;;;;;3.35;0.50;;;3.10;99.90;;;;;;5032560;28;20037;-75
2022/02/07 03:28:39;;;;;;;1.85;0.65;;;3.00;99.90;;;;;;5031920;28;20505;-74
2022/02/07 03:31:05;;;;;;;2.45;0.80;;;3.00;99.90;;;;;;5031738;28;20037;-75
2022/02/07 03:33:30;;;;;;;2.58;0.55;;;2.90;99.90;;;;;;5032662;28;20115;-74
2022/02/07 03:35:56;;;;;;;1.27;0.20;;;3.00;99.90;;;;;;5031251;28;20490;-75
2022/02/07 03:38:22;;;;;;;2.45;0.40;;;3.00;99.90;;;;;;5035814;28;20051;-72
2022/02/07 03:40:47;;;;;;;3.22;0.40;;;3.00;99.90;;;;;;5031148;28;20034;-75
2022/02/07 03:43:13;;;;;;;2.17;0.65;;;3.00;99.90;;;;;;5015156;28;20057;-75
2022/02/07 03:45:38;;;;;;;3.05;0.60;;;3.00;99.90;;;;;;5031931;28;20373;-76
2022/02/07 03:48:04;;;;;;;1.65;0.30;;;3.00;99.90;;;;;;5032340;28;20080;-76
2022/02/07 03:50:30;;;;;;;1.45;0.38;;;2.90;99.90;;;;;;5031320;28;20047;-75
2022/02/07 03:52:55;;;;;;;3.03;0.82;;;2.90;99.90;;;;;;5032173;28;20057;-75
2022/02/07 03:55:21;;;;;;;5.25;0.90;;;3.00;99.90;;;;;;5031254;28;20099;-75
2022/02/07 03:57:47;;;;;;;1.42;0.30;;;2.90;99.90;;;;;;5032405;28;20025;-75
2022/02/07 04:00:14;;;;;;;2.92;0.70;;;3.00;99.90;;;;;;5031507;28;20031;-75
2022/02/07 04:02:43;;;;;;;4.80;0.60;;;2.90;99.90;;;;;;5053353;22;20068;-78
2022/02/07 04:07:54;;;;;;;1.30;0.50;;;2.80;99.90;;;;;;5067340;28;20032;-78
2022/02/07 04:10:22;;;;;;;1.92;0.40;;;2.60;99.90;;;;;;5067292;28;20033;-78
2022/02/07 04:12:54;;;;;;;2.05;0.50;;;2.70;99.90;;;;;;5066576;28;20025;-78
2022/02/07 04:15:20;;;;;;;3.00;0.68;;;2.70;99.90;;;;;;5061346;28;20386;-78
2022/02/07 04:17:53;;;;;;;3.53;0.73;;;2.70;99.90;;;;;;5054477;28;20053;-78
2022/02/07 04:20:19;;;;;;;1.50;0.45;;;2.60;99.90;;;;;;5053123;28;20029;-78
2022/02/07 04:22:45;;;;;;;1.00;0.20;;;2.50;99.90;;;;;;5052199;28;20431;-78
2022/02/07 04:25:11;;;;;;;3.58;0.60;;;2.50;99.90;;;;;;5052155;28;20021;-78
2022/02/07 04:27:37;;;;;;;3.03;0.32;;;2.50;99.90;;;;;;5053779;28;20029;-78
2022/02/07 04:30:07;;;;;;;5.22;0.50;;;2.50;99.90;;;;;;5052703;28;20393;-78
2022/02/07 04:32:33;;;;;;;2.38;0.30;;;2.30;99.90;;;;;;5053722;28;20466;-78
2022/02/07 04:34:58;;;;;;;3.72;1.20;;;2.40;99.90;;;;;;5053063;28;20025;-77
2022/02/07 04:37:24;;;;;;;4.70;1.20;;;2.30;99.90;;;;;;5053964;28;20117;-78
2022/02/07 04:39:52;;;;;;;4.03;0.52;;;2.30;99.90;;;;;;5053015;28;20555;-78
2022/02/07 04:42:19;;;;;;;3.28;0.40;;;2.30;99.90;;;;;;5053714;28;20112;-78
2022/02/07 04:45:05;;;;;;;2.63;0.75;;;2.40;99.90;;;;;;5053677;28;20452;-78
2022/02/07 04:55:39;;;;;;;1.25;0.20;;;2.10;99.90;;;;;;5034380;28;20069;-78
2022/02/07 05:03:27;;;;;;;4.22;0.55;;;2.90;99.90;;;;;;5053645;28;20037;-78
2022/02/07 05:14:10;;;;;;;5.95;0.50;;;1.90;99.90;;;;;;5025359;28;20476;-77
2022/02/07 05:16:35;;;;;;;4.50;0.60;;;1.90;99.90;;;;;;5056137;28;20017;-78
2022/02/07 05:19:04;;;;;;;2.33;0.47;;;1.80;99.90;;;;;;5070971;28;20079;-78
2022/02/07 05:21:30;;;;;;;2.35;0.47;;;1.90;99.90;;;;;;5068060;28;20021;-78
2022/02/07 05:23:56;;;;;;;0.80;0.30;;;1.90;99.90;;;;;;5056804;28;20086;-78
2022/02/07 05:26:22;;;;;;;5.53;0.60;;;1.90;99.90;;;;;;5055971;28;20100;-78
2022/02/07 05:28:48;;;;;;;2.28;0.77;;;1.90;99.90;;;;;;5054088;28;20044;-78
2022/02/07 05:31:14;;;;;;;2.30;0.70;;;1.70;99.90;;;;;;5055321;28;20037;-78
2022/02/07 05:33:40;;;;;;;2.88;0.80;;;1.60;99.90;;;;;;5055485;28;20033;-78
2022/02/07 05:36:09;;;;;;;3.85;1.17;;;1.60;99.90;;;;;;5054837;28;20381;-79
2022/02/07 05:38:40;;;;;;;3.10;0.93;;;1.30;99.90;;;;;;5057650;28;20048;-78
2022/02/07 05:41:07;;;;;;;3.58;1.30;;;1.40;99.90;;;;;;5058344;28;20025;-79
2022/02/07 05:43:38;;;;;;;1.92;0.65;;;1.40;99.90;;;;;;5057994;28;20485;-78
2022/02/07 05:46:04;;;;;;;4.97;0.80;;;1.40;99.90;;;;;;5057399;28;20063;-78
2022/02/07 05:48:30;;;;;;;2.17;0.85;;;1.40;99.90;;;;;;5056724;28;20032;-78
2022/02/07 05:50:56;;;;;;;4.22;1.00;;;1.30;99.90;;;;;;5055256;28;20029;-78
2022/02/07 05:53:22;;;;;;;5.82;0.95;;;1.30;99.90;;;;;;5056741;28;20056;-78
2022/02/07 05:55:47;;;;;;;6.07;1.10;;;1.40;99.90;;;;;;5056644;28;20071;-78
2022/02/07 05:58:13;;;;;;;4.45;0.75;;;1.30;99.90;;;;;;5056620;28;20112;-77
2022/02/07 06:00:39;;;;;;;4.35;0.75;;;1.40;99.90;;;;;;5056137;28;20029;-78
2022/02/07 06:03:05;;;;;;;3.40;1.00;;;1.60;99.90;;;;;;5056530;28;20044;-78
2022/02/07 06:05:31;;;;;;;7.75;1.00;;;1.80;99.90;;;;;;5057504;28;20032;-78
2022/02/07 06:07:56;;;;;;;4.60;0.90;;;1.90;99.90;;;;;;5064586;28;20052;-78
2022/02/07 06:10:23;;;;;;;8.55;1.30;;;2.00;99.90;;;;;;5072270;28;20037;-78
2022/02/07 06:12:50;;;;;;;1.58;0.50;;;2.30;99.90;;;;;;5073912;28;20025;-78
2022/02/07 06:15:17;;;;;;;4.20;1.20;;;2.20;99.90;;;;;;5058289;28;20017;-78
2022/02/07 06:17:46;;;;;;;3.70;0.70;;;2.40;99.90;;;;;;5056260;28;20079;-78
2022/02/07 06:20:12;;;;;;;2.38;0.50;;;2.40;99.90;;;;;;5055050;28;20025;-78
2022/02/07 06:22:37;;;;;;;3.38;0.85;;;2.40;99.90;;;;;;5055934;28;20029;-79
2022/02/07 06:25:03;;;;;;;3.53;0.68;;;2.50;99.90;;;;;;5054897;28;20039;-78
2022/02/07 06:27:29;;;;;;;2.42;0.68;;;2.60;99.90;;;;;;5056015;28;20029;-78
2022/02/07 06:29:55;;;;;;;3.50;0.57;;;2.70;99.90;;;;;;5054935;28;20029;-78
2022/02/07 06:32:21;;;;;;;3.60;0.65;;;2.80;99.90;;;;;;5055922;28;20025;-78
2022/02/07 06:34:46;;;;;;;3.42;0.70;;;2.70;99.90;;;;;;5055384;28;20021;-78
2022/02/07 06:37:12;;;;;;;3.20;0.63;;;2.50;99.90;;;;;;5055771;28;20026;-78
2022/02/07 06:39:38;;;;;;;3.63;0.68;;;2.70;99.90;;;;;;5054491;28;20032;-78
2022/02/07 06:42:04;;;;;;;5.13;1.92;;;2.60;99.90;;;;;;5061657;28;20043;-78
2022/02/07 06:44:29;;;;;;;1.98;0.60;;;2.60;99.90;;;;;;5054332;28;20106;-78
2022/02/07 06:46:55;;;;;;;2.53;0.75;;;2.60;99.90;;;;;;5049856;28;20054;-76
2022/02/07 06:49:21;;;;;;;6.20;0.80;;;2.60;99.90;;;;;;5047579;28;20116;-77
2022/02/07 06:51:47;;;;;;;3.67;0.82;;;2.50;99.90;;;;;;5053675;28;20431;-78
2022/02/07 06:54:14;;;;;;;3.90;1.10;;;3.20;99.90;;;;;;5054840;28;20021;-78
2022/02/07 06:56:40;;;;;;;5.80;0.65;;;2.40;99.90;;;;;;5041688;28;20374;-78
2022/02/07 06:59:06;;;;;;;3.08;0.60;;;2.30;99.90;;;;;;5034283;28;20029;-78
2022/02/07 07:01:32;;;;;;;5.72;1.10;;;3.50;99.90;;;;;;5034469;28;20053;-77
2022/02/07 07:03:58;;;;;;;6.03;0.95;;;1.00;99.90;;;;;;5034699;28;20506;-78
2022/02/07 07:06:23;;;;;;;2.72;0.88;;;2.40;99.90;;;;;;5035279;28;20044;-78
2022/02/07 07:08:53;;;;;;;5.60;1.10;;;2.40;99.90;;;;;;5047651;28;20406;-78
2022/02/07 07:11:23;;;;;;;2.67;0.60;;;2.50;99.90;;;;;;5055168;28;20516;-78
2022/02/07 07:13:56;;;;;;;3.67;0.80;;;2.50;99.90;;;;;;5064396;28;20070;-78
2022/02/07 07:18:47;;;;;;;4.95;1.23;;;2.40;99.90;;;;;;5072174;28;20032;-78
2022/02/07 07:21:12;;;;;;;4.82;1.13;;;2.30;99.90;;;;;;5058031;28;20040;-78
2022/02/07 07:23:39;;;;;;;6.40;1.40;;;2.40;99.90;;;;;;5058738;28;20103;-78
2022/02/07 07:26:05;;;;;;;4.55;0.82;;;2.40;99.90;;;;;;5059156;28;20025;-78
2022/02/07 07:28:30;;;;;;;10.80;1.17;;;2.30;99.90;;;;;;5044430;28;20036;-78
2022/02/07 07:30:58;;;;;;;7.55;1.10;;;2.50;99.90;;;;;;5045613;28;20493;-78
2022/02/07 07:33:25;;;;;;;3.00;0.90;;;2.80;99.90;;;;;;5046441;28;20083;-78
2022/02/07 07:35:51;;;;;;;5.18;1.10;;;2.60;99.90;;;;;;5046930;28;20025;-78
2022/02/07 07:38:17;;;;;;;9.18;1.77;;;2.60;99.90;;;;;;5046728;28;20075;-78
2022/02/07 07:40:44;;;;;;;11.57;2.22;;;2.80;99.90;;;;;;5044711;28;20048;-78
2022/02/07 07:43:11;;;;;;;8.82;0.98;;;2.90;99.90;;;;;;5046662;28;20029;-79
2022/02/07 07:45:44;;;;;;;4.35;1.00;;;2.90;99.90;;;;;;5046030;28;20071;-78
2022/02/07 07:48:13;;;;;;;4.80;1.00;;;3.10;99.90;;;;;;5061433;28;20036;-78
2022/02/07 07:50:49;;;;;;;3.72;1.00;;;3.00;99.90;;;;;;5041144;28;20438;-78
2022/02/07 08:03:49;;;;;;;3.45;1.13;;;3.60;99.90;;;;;;5050599;28;20064;-78
2022/02/07 08:06:22;;;;;;;3.45;0.50;;;3.70;99.90;;;;;;5051913;28;20643;-79
2022/02/07 08:09:02;;;;;;;7.05;1.27;;;3.70;99.90;;;;;;5054745;28;20120;-79
2022/02/07 08:11:30;;;;;;;2.75;0.45;;;3.70;99.90;;;;;;5054642;28;20042;-78
2022/02/07 08:13:56;;;;;;;2.63;0.65;;;3.60;99.90;;;;;;5070913;28;20020;-79
2022/02/07 08:16:21;;;;;;;4.60;0.93;;;3.70;99.90;;;;;;5049482;28;20025;-78
2022/02/07 08:18:47;;;;;;;3.28;0.68;;;3.70;99.90;;;;;;5035815;28;20025;-79
2022/02/07 08:21:13;;;;;;;6.43;1.50;;;5.00;99.90;;;;;;5055177;28;20025;-79
2022/02/07 08:23:39;;;;;;;4.70;1.92;;;3.90;99.90;;;;;;5051377;28;20389;-79
2022/02/07 08:26:06;;;;;;;4.40;0.75;;;4.10;99.90;;;;;;5047317;28;20181;-78
2022/02/07 08:28:31;;;;;;;5.25;0.90;;;4.10;99.90;;;;;;5047099;28;20025;-78
2022/02/07 08:30:57;;;;;;;9.55;1.02;;;4.30;99.90;;;;;;5047322;28;20119;-79
2022/02/07 08:33:23;;;;;;;3.70;0.63;;;5.20;99.90;;;;;;5049282;28;20028;-78
2022/02/07 08:35:48;;;;;;;9.25;1.35;;;6.30;99.90;;;;;;5055531;28;20080;-78
2022/02/07 08:38:16;;;;;;;5.82;1.13;;;5.20;99.90;;;;;;5068129;28;20013;-77
2022/02/07 08:40:42;;;;;;;4.28;1.58;;;5.00;99.90;;;;;;5067881;28;20036;-78
2022/02/07 08:43:08;;;;;;;5.32;0.93;;;4.80;99.90;;;;;;5060595;28;20071;-78
2022/02/07 08:45:33;;;;;;;6.80;1.15;;;5.60;99.90;;;;;;5049141;28;20077;-78
2022/02/07 08:47:59;;;;;;;5.88;1.02;;;5.70;99.90;;;;;;5058225;28;20052;-78
2022/02/07 08:50:27;;;;;;;6.88;1.13;;;6.40;99.90;;;;;;5058116;28;20037;-79
2022/02/07 08:52:55;;;;;;;7.28;1.88;;;7.20;99.90;;;;;;5050303;28;20120;-79
2022/02/07 08:55:29;;;;;;;7.22;1.52;;;7.70;99.90;;;;;;5054211;28;20031;-79
2022/02/07 08:58:00;;;;;;;3.80;0.88;;;7.60;99.90;;;;;;5034120;28;20069;-78
2022/02/07 09:08:38;;;;;;;3.28;0.75;;;7.50;99.90;;;;;;5053686;28;20512;-79
2022/02/07 09:11:04;;;;;;;5.78;0.88;;;7.30;99.90;;;;;;5052028;28;20033;-78
2022/02/07 09:13:32;;;;;;;5.70;1.10;;;7.90;99.90;;;;;;5051394;28;20021;-77
2022/02/07 09:16:18;;;;;;;12.07;1.38;;;8.60;99.90;;;;;;5050359;28;20092;-76
2022/02/07 09:18:46;;;;;;;4.07;1.40;;;8.10;99.90;;;;;;5050185;28;20075;-77
2022/02/07 09:21:12;;;;;;;6.43;1.60;;;8.50;99.90;;;;;;5050392;28;20033;-77
2022/02/07 09:23:39;;;;;;;6.32;1.17;;;8.40;99.90;;;;;;5050977;28;20032;-77
2022/02/07 09:26:05;;;;;;;3.53;1.00;;;8.00;99.90;;;;;;5050793;28;20021;-77
2022/02/07 09:28:32;;;;;;;5.70;1.10;;;7.10;99.90;;;;;;5051454;28;20037;-77
2022/02/07 09:30:58;;;;;;;4.55;1.13;;;7.70;99.90;;;;;;5054565;28;20041;-77
2022/02/07 09:33:24;;;;;;;4.28;1.10;;;7.20;99.90;;;;;;5068491;28;20024;-78
2022/02/07 09:35:51;;;;;;;6.07;1.48;;;9.00;99.90;;;;;;5074687;28;20445;-77
2022/02/07 09:38:18;;;;;;;5.63;1.25;;;7.30;99.90;;;;;;5073395;28;20031;-77
2022/02/07 09:40:51;;;;;;;5.78;0.85;;;7.10;99.90;;;;;;5057606;28;20033;-77
2022/02/07 09:43:18;;;;;;;9.88;2.30;;;7.70;99.90;;;;;;5067891;28;20024;-77
2022/02/07 09:45:47;;;;;;;5.25;1.10;;;7.50;99.90;;;;;;5074423;28;20107;-77
2022/02/07 09:48:15;;;;;;;5.38;1.13;;;7.00;99.90;;;;;;5073333;28;20029;-77
2022/02/07 09:50:41;;;;;;;4.95;1.23;;;7.10;99.90;;;;;;5058997;28;20461;-77
2022/02/07 09:53:07;;;;;;;5.55;0.80;;;7.00;99.90;;;;;;5054340;28;20067;-77
2022/02/07 09:55:33;;;;;;;4.63;1.02;;;6.80;99.90;;;;;;5054611;28;20105;-77
2022/02/07 09:58:00;;;;;;;6.25;1.20;;;7.20;99.90;;;;;;5054450;28;20052;-77
2022/02/07 10:00:34;;;;;;;4.43;1.73;;;8.50;99.90;;;;;;5054353;28;20041;-77
2022/02/07 10:03:07;;;;;;;7.40;1.20;;;7.60;99.90;;;;;;5064867;28;20045;-76
2022/02/07 10:05:43;;;;;;;;;;;7.60;99.90;;;;;;5073776;28;20074;-77
2022/02/07 10:08:16;;;;;;;5.93;1.08;;;7.40;99.90;;;;;;5055124;28;19908;-77
2022/02/07 10:11:03;;;;;;;12.88;1.27;;;8.10;99.90;;;;;;5053108;28;20103;-77
2022/02/07 10:38:25;;;;;;;6.53;1.63;;;8.10;99.90;;;;;;5055507;28;20094;-78
2022/02/07 10:41:18;;;;;;;6.20;1.48;;;8.30;99.90;;;;;;5055817;28;20036;-78
2022/02/07 10:46:13;;;;;;;7.78;1.73;;;7.60;99.90;;;;;;5054957;28;20064;-77
2022/02/07 10:48:42;;;;;;;5.55;1.27;;;7.00;99.90;;;;;;5065901;28;20454;-78
2022/02/07 10:51:13;;;;;;;3.80;1.00;;;7.10;99.90;;;;;;5054615;28;20060;-78
2022/02/07 10:53:49;;;;;;;9.38;1.45;;;7.10;99.90;;;;;;5055647;28;20481;-78
2022/02/07 10:56:17;;;;;;;8.85;1.02;;;6.80;99.90;;;;;;5065785;28;20028;-77
2022/02/07 10:58:44;;;;;;;4.65;1.65;;;6.90;99.90;;;;;;5074055;28;20470;-78
2022/02/07 11:03:44;;;;;;;10.48;1.92;;;6.50;99.90;;;;;;5055283;28;20036;-78
2022/02/07 11:06:13;;;;;;;8.95;1.50;;;6.80;99.90;;;;;;5064802;28;20094;-78
2022/02/07 11:17:19;;;;;;;5.97;1.42;;;6.50;99.90;;;;;;5055528;28;20162;-78
2022/02/07 11:27:39;;;;;;;5.13;1.10;;;6.50;99.90;;;;;;5074944;28;20029;-79
2022/02/07 11:30:13;;;;;;;5.75;1.33;;;6.60;99.90;;;;;;5074374;28;20040;-78
2022/02/07 11:32:39;;;;;;;4.07;1.00;;;6.80;99.90;;;;;;5035478;28;20529;-78
2022/02/07 11:35:15;;;;;;;9.82;2.13;;;7.20;99.90;;;;;;5054757;28;20024;-78
2022/02/07 11:37:43;;;;;;;8.15;1.60;;;6.60;99.90;;;;;;5058516;28;20028;-78
2022/02/07 11:40:28;;;;;;;5.60;0.98;;;6.50;99.90;;;;;;5060273;28;20039;-77
2022/02/07 11:43:08;;;;;;;4.82;0.85;;;6.60;99.90;;;;;;5058598;28;20024;-79
2022/02/07 11:45:58;;;;;;;7.70;1.42;;;6.70;99.90;;;;;;5060150;28;20029;-78
2022/02/07 11:48:34;;;;;;;7.43;1.80;;;6.50;99.90;;;;;;5070426;28;20047;-79
2022/02/07 11:51:09;;;;;;;3.67;1.20;;;6.50;99.90;;;;;;5051807;28;20115;-78
2022/02/07 11:53:46;;;;;;;10.93;1.67;;;6.50;99.90;;;;;;5056678;28;20071;-78
2022/02/07 11:56:19;;;;;;;7.93;1.52;;;6.40;99.90;;;;;;5066571;28;20020;-78
2022/02/07 11:59:13;;;;;;;6.13;1.65;;;6.50;99.90;;;;;;5069255;28;20028;-79
2022/02/07 12:01:53;;;;;;;6.05;1.40;;;7.70;99.90;;;;;;5056728;28;20088;-78
2022/02/07 12:04:42;;;;;;;5.30;1.20;;;6.50;99.90;;;;;;5056536;28;20528;-78
2022/02/07 12:07:11;;;;;;;6.82;1.52;;;6.60;99.90;;;;;;5057053;28;20040;-79
2022/02/07 12:09:38;;;;;;;7.53;1.23;;;7.50;99.90;;;;;;5053450;28;20029;-78
2022/02/07 12:12:25;;;;;;;5.38;1.10;;;6.30;99.90;;;;;;5053393;28;20025;-78
2022/02/07 12:14:50;;;;;;;6.82;1.30;;;6.40;99.90;;;;;;5065740;28;20095;-79
2022/02/07 12:17:40;;;;;;;7.60;1.38;;;6.40;99.90;;;;;;5074762;28;20067;-78
2022/02/07 12:20:08;;;;;;;14.48;2.63;;;6.50;99.90;;;;;;5054066;28;20087;-78
2022/02/07 12:22:51;;;;;;;12.65;1.80;;;6.50;99.90;;;;;;5053640;28;20021;-78
2022/02/07 12:25:29;;;;;;;10.52;1.27;;;6.50;99.90;;;;;;5053629;28;20477;-77
2022/02/07 12:27:58;;;;;;;7.30;1.42;;;7.90;99.90;;;;;;5054795;28;20029;-78
2022/02/07 12:30:32;;;;;;;9.93;1.30;;;6.50;99.90;;;;;;5072383;28;20048;-78
2022/02/07 12:33:04;;;;;;;11.02;2.25;;;8.00;99.90;;;;;;5076395;28;20032;-79
2022/02/07 12:35:30;;;;;;;7.30;1.30;;;6.60;99.90;;;;;;5066936;28;20021;-78
2022/02/07 12:37:56;;;;;;;13.80;1.98;;;6.50;99.90;;;;;;5075831;28;20035;-79
2022/02/07 12:40:23;;;;;;;9.13;1.50;;;6.40;99.90;;;;;;5071257;28;20028;-79
2022/02/07 12:42:50;;;;;;;7.43;1.40;;;6.50;99.90;;;;;;5054638;28;20022;-78
2022/02/07 12:45:18;;;;;;;12.80;2.47;;;6.50;99.90;;;;;;5053556;28;20116;-78
2022/02/07 12:47:49;;;;;;;6.63;1.38;;;6.70;99.90;;;;;;5062567;28;20052;-78
2022/02/07 12:50:16;;;;;;;8.85;1.55;;;6.30;99.90;;;;;;5058086;28;20037;-79
2022/02/07 12:52:41;;;;;;;8.10;1.52;;;6.70;99.90;;;;;;5037543;28;20053;-80
2022/02/07 12:55:12;;;;;;;9.65;1.80;;;7.00;99.90;;;;;;5072107;28;20022;-79
2022/02/07 12:57:41;;;;;;;6.63;1.40;;;6.80;99.90;;;;;;5045449;28;20021;-78
2022/02/07 13:00:10;;;;;;;7.00;1.30;;;7.70;99.90;;;;;;5056241;28;20051;-77
2022/02/07 13:02:39;;;;;;;5.57;1.50;;;6.60;99.90;;;;;;5053557;28;20068;-76
2022/02/07 13:05:09;;;;;;;6.22;1.17;;;6.70;99.90;;;;;;5056497;28;20029;-76
2022/02/07 13:07:40;;;;;;;7.40;1.95;;;6.70;99.90;;;;;;5075475;28;20155;-77
2022/02/07 13:10:06;;;;;;;5.72;1.60;;;6.50;99.90;;;;;;5054388;28;20047;-77
2022/02/07 13:12:50;;;;;;;13.40;1.88;;;6.60;99.90;;;;;;5055533;28;20025;-77
2022/02/07 13:15:22;;;;;;;6.43;1.20;;;7.20;99.90;;;;;;5051087;28;20025;-76
2022/02/07 13:17:54;;;;;;;6.65;1.65;;;6.70;99.90;;;;;;5054754;28;20103;-76
2022/02/07 13:20:22;;;;;;;6.50;1.38;;;6.60;99.90;;;;;;5054307;28;20135;-77
2022/02/07 13:22:59;;;;;;;7.72;1.73;;;6.70;99.90;;;;;;5055096;28;20096;-76
2022/02/07 13:25:25;;;;;;;13.45;2.53;;;6.70;99.90;;;;;;5055228;28;20025;-77
2022/02/07 13:27:55;;;;;;;7.13;1.40;;;6.80;99.90;;;;;;5055172;28;20527;-76
2022/02/07 13:30:21;;;;;;;12.60;1.52;;;7.00;99.90;;;;;;5054123;28;20112;-76
2022/02/07 13:32:49;;;;;;;7.03;1.33;;;6.70;99.90;;;;;;5054544;28;20461;-76
2022/02/07 13:35:16;;;;;;;6.20;1.35;;;6.70;99.90;;;;;;5057492;28;20119;-76
2022/02/07 13:37:43;;;;;;;6.82;2.00;;;7.30;99.90;;;;;;5073042;28;20032;-77
2022/02/07 13:40:21;;;;;;;7.72;1.42;;;6.90;99.90;;;;;;5055186;28;20028;-78
2022/02/07 13:42:50;;;;;;;7.35;1.65;;;6.80;99.90;;;;;;5050270;28;20033;-78
2022/02/07 13:45:25;;;;;;;7.72;1.73;;;7.00;99.90;;;;;;5050768;28;20036;-76
2022/02/07 13:47:55;;;;;;;11.23;1.40;;;7.10;99.90;;;;;;5059057;28;20029;-76
2022/02/07 13:50:28;;;;;;;8.60;2.00;;;7.40;99.90;;;;;;5054683;28;20036;-76
2022/02/07 13:52:55;;;;;;;8.23;1.23;;;7.10;99.90;;;;;;5049288;28;20021;-76
2022/02/07 13:55:33;;;;;;;7.88;1.33;;;8.40;99.90;;;;;;5050244;28;20101;-76
2022/02/07 13:58:07;;;;;;;7.82;2.03;;;7.30;99.90;;;;;;5049466;28;20025;-77
2022/02/07 14:00:49;;;;;;;8.10;1.77;;;7.50;99.90;;;;;;5049799;28;20497;-78
2022/02/07 14:03:28;;;;;;;7.70;1.60;;;7.00;99.90;;;;;;5048394;28;20037;-76
2022/02/07 14:05:57;;;;;;;11.32;2.92;;;7.90;99.90;;;;;;5049819;28;20166;-76
2022/02/07 14:08:54;;;;;;;9.43;1.52;;;6.80;99.90;;;;;;5049812;28;20036;-76
2022/02/07 14:11:29;;;;;;;7.28;1.25;;;6.80;99.90;;;;;;5033091;28;20029;-77
2022/02/07 14:14:01;;;;;;;10.25;2.03;;;6.80;99.90;;;;;;5056481;28;20033;-76
2022/02/07 14:16:28;;;;;;;6.80;1.60;;;7.00;99.90;;;;;;5070208;28;20016;-76
2022/02/07 14:18:55;;;;;;;9.00;1.20;;;6.90;99.90;;;;;;5063313;28;20025;-78
2022/02/07 14:21:22;;;;;;;5.32;1.35;;;6.90;99.90;;;;;;5051645;28;20033;-76
2022/02/07 14:23:53;;;;;;;6.30;1.40;;;6.90;99.90;;;;;;5053914;28;20033;-77
2022/02/07 14:26:21;;;;;;;5.10;1.25;;;7.00;99.90;;;;;;5065557;28;20401;-77
2022/02/07 14:28:51;;;;;;;9.30;1.35;;;7.00;99.90;;;;;;5054598;28;20036;-76
2022/02/07 14:31:17;;;;;;;9.27;1.90;;;7.00;99.90;;;;;;5049130;28;20029;-78
2022/02/07 14:33:43;;;;;;;5.43;1.10;;;6.90;99.90;;;;;;5050236;28;20048;-76
2022/02/07 14:36:09;;;;;;;9.63;1.50;;;7.20;99.90;;;;;;5049745;28;20049;-78
2022/02/07 14:38:35;;;;;;;10.32;1.27;;;6.90;99.90;;;;;;5049213;28;20456;-78
2022/02/07 14:41:01;;;;;;;6.43;1.27;;;7.70;99.90;;;;;;5049911;28;20029;-77
2022/02/07 14:43:31;;;;;;;8.73;1.60;;;7.00;99.90;;;;;;5047805;28;20119;-76
2022/02/07 14:48:30;;;;;;;;;;;7.10;99.90;;;;;;5055154;28;20025;-78
2022/02/07 14:50:56;;;;;;;10.00;1.13;;;6.90;99.90;;;;;;5049545;28;20515;-77
2022/02/07 14:53:22;;;;;;;6.35;1.05;;;7.40;99.90;;;;;;5048717;28;20021;-76
2022/02/07 14:55:49;;;;;;;5.57;1.50;;;7.50;99.90;;;;;;5049743;28;20032;-76
2022/02/07 14:58:14;;;;;;;6.88;1.13;;;7.60;99.90;;;;;;5048230;28;20025;-76
2022/02/07 15:00:40;;;;;;;5.82;1.00;;;6.80;99.90;;;;;;5048154;28;20136;-76
2022/02/07 15:03:07;;;;;;;4.03;1.25;;;6.90;99.90;;;;;;5049317;28;20454;-76
2022/02/07 15:05:34;;;;;;;3.50;1.02;;;6.80;99.90;;;;;;5048860;28;20029;-76
2022/02/07 15:08:01;;;;;;;12.45;1.73;;;6.80;99.90;;;;;;5048570;28;20025;-76
2022/02/07 15:10:28;;;;;;;8.05;1.48;;;7.30;99.90;;;;;;5047770;28;20350;-76
2022/02/07 15:12:55;;;;;;;7.72;1.65;;;6.90;99.90;;;;;;5048790;28;20112;-76
2022/02/07 15:15:21;;;;;;;6.32;1.10;;;6.90;99.90;;;;;;5048994;28;20100;-75
2022/02/07 15:17:47;;;;;;;9.55;1.52;;;6.80;99.90;;;;;;5048833;28;20481;-76
2022/02/07 15:20:13;;;;;;;8.77;1.60;;;6.90;99.90;;;;;;5047607;28;20036;-77
2022/02/07 15:22:45;;;;;;;4.38;1.17;;;6.70;99.90;;;;;;5048510;28;20025;-80
2022/02/07 15:25:17;;;;;;;9.75;1.58;;;6.90;99.90;;;;;;5048216;28;20028;-79
2022/02/07 15:27:43;;;;;;;10.40;1.60;;;6.80;99.90;;;;;;5046685;28;20120;-78
2022/02/07 15:30:09;;;;;;;3.97;1.00;;;7.00;99.90;;;;;;5047319;28;20116;-77
2022/02/07 15:32:39;;;;;;;6.72;1.20;;;6.50;99.90;;;;;;5050355;28;20444;-76
2022/02/07 15:35:06;;;;;;;6.65;1.20;;;6.70;99.90;;;;;;5052676;28;20032;-75
2022/02/07 15:37:32;;;;;;;8.85;1.40;;;6.70;99.90;;;;;;5072493;28;20063;-75
2022/02/07 15:39:58;;;;;;;6.40;1.42;;;6.60;99.90;;;;;;5060112;28;20371;-75
2022/02/07 15:42:24;;;;;;;11.48;2.85;;;6.80;99.90;;;;;;5052308;28;20036;-76
2022/02/07 15:44:51;;;;;;;8.82;1.88;;;6.90;99.90;;;;;;5052306;28;20040;-76
2022/02/07 15:47:17;;;;;;;12.25;2.50;;;6.70;99.90;;;;;;5071488;28;20082;-76
2022/02/07 15:49:43;;;;;;;6.38;1.50;;;6.70;99.90;;;;;;5056786;28;20540;-76
2022/02/07 15:52:09;;;;;;;8.52;2.28;;;6.60;99.90;;;;;;5053358;28;20148;-77